KMKC/MKC METAR and TAF weather

Enter ICAO airport designator
Station Type Date Time Source
KMKC METAR 2022/12/02 23:54 UTC NOAA

KMKC 022354Z 20014G22KT 10SM CLR 13/09 A2971 RMK AO2 PK WND 20027/2255 SLP059 T01330094 10161 20122 53024


Station Type Date Time Source
KMKC Decoded METAR 2022/12/02 23:54 UTC NOAA

KANSAS CITY DOWNTOWN AIRPORT , MO, United States (KMKC) 39-07N 094-36W 227M
Dec 02, 2022 - 06:54 PM EST / 2022.12.02 2354 UTC
Wind: from the SSW (200 degrees) at 16 MPH (14 KT) gusting to 25 MPH (22 KT):0
Visibility: 10 mile(s):0
Sky conditions: clear
Temperature: 55.9 F (13.3 C)
Dew Point: 48.9 F (9.4 C)
Relative Humidity: 77%
Pressure (altimeter): 29.71 in. Hg (1006 hPa)
Pressure tendency: 0.07 inches (2.4 hPa) higher than three hours ago
ob: KMKC 022354Z 20014G22KT 10SM CLR 13/09 A2971 RMK AO2 PK WND 20027/2255 SLP059 T01330094 10161 20122 53024
cycle: 0

Station Type Date Time Source
KMKC TAF 2022/12/02 21:48 UTC NOAA

TAF
AMD KMKC 022047Z 0221/0318 22020G30KT P6SM SCT040
FM030200 32020G33KT P6SM SCT250
FM031200 33010KT P6SM SKC

Example: see airport list